sensor_id;sensor_type;location;lat;lon;timestamp;P1;durP1;ratioP1;P2;durP2;ratioP2
37973;SDS011;23796;51.458;7.000;2024-02-16T00:00:11;3.17;;;1.00;;
37973;SDS011;23796;51.458;7.000;2024-02-16T00:02:37;4.47;;;1.20;;
37973;SDS011;23796;51.458;7.000;2024-02-16T00:05:04;2.88;;;0.90;;
37973;SDS011;23796;51.458;7.000;2024-02-16T00:07:32;4.15;;;1.25;;
37973;SDS011;23796;51.458;7.000;2024-02-16T00:09:58;3.05;;;1.10;;
37973;SDS011;23796;51.458;7.000;2024-02-16T00:12:26;3.25;;;1.23;;
37973;SDS011;23796;51.458;7.000;2024-02-16T00:14:52;4.00;;;0.98;;
37973;SDS011;23796;51.458;7.000;2024-02-16T00:17:17;3.75;;;0.90;;
37973;SDS011;23796;51.458;7.000;2024-02-16T00:19:43;3.17;;;1.00;;
37973;SDS011;23796;51.458;7.000;2024-02-16T00:22:08;3.67;;;0.95;;
37973;SDS011;23796;51.458;7.000;2024-02-16T00:24:34;3.30;;;1.15;;
37973;SDS011;23796;51.458;7.000;2024-02-16T00:27:03;2.72;;;0.90;;
37973;SDS011;23796;51.458;7.000;2024-02-16T00:29:31;4.88;;;1.08;;
37973;SDS011;23796;51.458;7.000;2024-02-16T00:31:57;3.50;;;1.00;;
37973;SDS011;23796;51.458;7.000;2024-02-16T00:34:24;2.38;;;0.82;;
37973;SDS011;23796;51.458;7.000;2024-02-16T00:36:52;3.45;;;1.17;;
37973;SDS011;23796;51.458;7.000;2024-02-16T00:39:18;3.15;;;1.02;;
37973;SDS011;23796;51.458;7.000;2024-02-16T00:41:43;1.98;;;0.85;;
37973;SDS011;23796;51.458;7.000;2024-02-16T00:44:12;3.33;;;1.00;;
37973;SDS011;23796;51.458;7.000;2024-02-16T00:46:43;5.25;;;1.13;;
37973;SDS011;23796;51.458;7.000;2024-02-16T00:49:09;3.15;;;0.98;;
37973;SDS011;23796;51.458;7.000;2024-02-16T00:51:38;3.47;;;1.08;;
37973;SDS011;23796;51.458;7.000;2024-02-16T00:54:04;5.68;;;1.08;;
37973;SDS011;23796;51.458;7.000;2024-02-16T00:56:32;4.03;;;1.10;;
37973;SDS011;23796;51.458;7.000;2024-02-16T00:58:58;3.28;;;1.13;;
37973;SDS011;23796;51.458;7.000;2024-02-16T01:01:24;3.88;;;0.90;;
37973;SDS011;23796;51.458;7.000;2024-02-16T01:03:51;2.50;;;1.00;;
37973;SDS011;23796;51.458;7.000;2024-02-16T01:06:17;3.30;;;0.93;;
37973;SDS011;23796;51.458;7.000;2024-02-16T01:08:43;3.97;;;1.38;;
37973;SDS011;23796;51.458;7.000;2024-02-16T01:11:09;2.58;;;0.98;;
37973;SDS011;23796;51.458;7.000;2024-02-16T01:13:34;3.08;;;1.05;;
37973;SDS011;23796;51.458;7.000;2024-02-16T01:16:00;3.05;;;1.05;;
37973;SDS011;23796;51.458;7.000;2024-02-16T01:18:28;3.35;;;1.05;;
37973;SDS011;23796;51.458;7.000;2024-02-16T01:20:54;3.30;;;1.17;;
37973;SDS011;23796;51.458;7.000;2024-02-16T01:23:20;3.25;;;0.95;;
37973;SDS011;23796;51.458;7.000;2024-02-16T01:25:46;5.22;;;1.20;;
37973;SDS011;23796;51.458;7.000;2024-02-16T01:28:12;3.42;;;1.10;;
37973;SDS011;23796;51.458;7.000;2024-02-16T01:30:41;3.38;;;0.85;;
37973;SDS011;23796;51.458;7.000;2024-02-16T01:33:07;3.72;;;1.00;;
37973;SDS011;23796;51.458;7.000;2024-02-16T01:35:33;4.32;;;0.95;;
37973;SDS011;23796;51.458;7.000;2024-02-16T01:37:59;3.55;;;1.00;;
37973;SDS011;23796;51.458;7.000;2024-02-16T01:40:26;5.32;;;1.70;;
37973;SDS011;23796;51.458;7.000;2024-02-16T01:42:52;2.45;;;1.15;;
37973;SDS011;23796;51.458;7.000;2024-02-16T01:45:18;3.15;;;1.08;;
37973;SDS011;23796;51.458;7.000;2024-02-16T01:47:47;4.30;;;1.02;;
37973;SDS011;23796;51.458;7.000;2024-02-16T01:50:15;4.32;;;1.00;;
37973;SDS011;23796;51.458;7.000;2024-02-16T01:52:46;3.13;;;1.10;;
37973;SDS011;23796;51.458;7.000;2024-02-16T01:55:13;2.40;;;0.90;;
37973;SDS011;23796;51.458;7.000;2024-02-16T01:57:40;2.97;;;0.98;;
37973;SDS011;23796;51.458;7.000;2024-02-16T02:00:11;3.00;;;1.05;;
37973;SDS011;23796;51.458;7.000;2024-02-16T02:02:46;3.88;;;1.35;;
37973;SDS011;23796;51.458;7.000;2024-02-16T02:05:12;3.47;;;1.08;;
37973;SDS011;23796;51.458;7.000;2024-02-16T02:07:38;3.17;;;1.13;;
37973;SDS011;23796;51.458;7.000;2024-02-16T02:10:04;2.97;;;1.20;;
37973;SDS011;23796;51.458;7.000;2024-02-16T02:12:29;4.70;;;1.50;;
37973;SDS011;23796;51.458;7.000;2024-02-16T02:14:55;3.97;;;1.27;;
37973;SDS011;23796;51.458;7.000;2024-02-16T02:17:21;2.55;;;0.98;;
37973;SDS011;23796;51.458;7.000;2024-02-16T02:19:46;4.10;;;1.02;;
37973;SDS011;23796;51.458;7.000;2024-02-16T02:22:15;3.13;;;1.20;;
37973;SDS011;23796;51.458;7.000;2024-02-16T02:24:43;3.13;;;1.05;;
37973;SDS011;23796;51.458;7.000;2024-02-16T02:27:11;3.80;;;1.23;;
37973;SDS011;23796;51.458;7.000;2024-02-16T02:29:38;4.07;;;1.20;;
37973;SDS011;23796;51.458;7.000;2024-02-16T02:32:04;3.25;;;1.17;;
37973;SDS011;23796;51.458;7.000;2024-02-16T02:34:30;3.53;;;1.17;;
37973;SDS011;23796;51.458;7.000;2024-02-16T02:36:58;4.78;;;1.20;;
37973;SDS011;23796;51.458;7.000;2024-02-16T02:39:26;4.00;;;1.65;;
37973;SDS011;23796;51.458;7.000;2024-02-16T02:41:52;3.40;;;1.20;;
37973;SDS011;23796;51.458;7.000;2024-02-16T02:44:22;2.65;;;0.98;;
37973;SDS011;23796;51.458;7.000;2024-02-16T02:46:51;4.32;;;1.17;;
37973;SDS011;23796;51.458;7.000;2024-02-16T02:49:17;3.70;;;1.10;;
37973;SDS011;23796;51.458;7.000;2024-02-16T02:51:43;3.08;;;1.20;;
37973;SDS011;23796;51.458;7.000;2024-02-16T02:54:08;2.20;;;0.80;;
37973;SDS011;23796;51.458;7.000;2024-02-16T02:56:34;3.45;;;0.98;;
37973;SDS011;23796;51.458;7.000;2024-02-16T02:59:00;3.83;;;1.20;;
37973;SDS011;23796;51.458;7.000;2024-02-16T03:01:25;4.28;;;1.33;;
37973;SDS011;23796;51.458;7.000;2024-02-16T03:03:51;4.70;;;1.55;;
37973;SDS011;23796;51.458;7.000;2024-02-16T03:06:17;3.90;;;1.10;;
37973;SDS011;23796;51.458;7.000;2024-02-16T03:08:43;3.08;;;1.00;;
37973;SDS011;23796;51.458;7.000;2024-02-16T03:11:09;2.88;;;0.93;;
37973;SDS011;23796;51.458;7.000;2024-02-16T03:13:37;3.42;;;1.13;;
37973;SDS011;23796;51.458;7.000;2024-02-16T03:16:02;3.10;;;0.95;;
37973;SDS011;23796;51.458;7.000;2024-02-16T03:18:29;3.20;;;1.20;;
37973;SDS011;23796;51.458;7.000;2024-02-16T03:20:58;3.53;;;1.17;;
37973;SDS011;23796;51.458;7.000;2024-02-16T03:23:23;3.83;;;1.20;;
37973;SDS011;23796;51.458;7.000;2024-02-16T03:25:49;4.60;;;1.27;;
37973;SDS011;23796;51.458;7.000;2024-02-16T03:28:15;4.70;;;1.20;;
37973;SDS011;23796;51.458;7.000;2024-02-16T03:30:41;3.30;;;1.08;;
37973;SDS011;23796;51.458;7.000;2024-02-16T03:33:07;4.30;;;1.77;;
37973;SDS011;23796;51.458;7.000;2024-02-16T03:35:35;3.20;;;1.23;;
37973;SDS011;23796;51.458;7.000;2024-02-16T03:38:01;4.40;;;1.10;;
37973;SDS011;23796;51.458;7.000;2024-02-16T03:40:30;4.03;;;1.20;;
37973;SDS011;23796;51.458;7.000;2024-02-16T03:42:55;3.35;;;1.00;;
37973;SDS011;23796;51.458;7.000;2024-02-16T03:45:23;5.20;;;1.00;;
37973;SDS011;23796;51.458;7.000;2024-02-16T03:47:49;4.28;;;1.13;;
37973;SDS011;23796;51.458;7.000;2024-02-16T03:50:17;3.75;;;1.30;;
37973;SDS011;23796;51.458;7.000;2024-02-16T03:52:43;6.10;;;1.30;;
37973;SDS011;23796;51.458;7.000;2024-02-16T03:55:08;5.68;;;1.40;;
37973;SDS011;23796;51.458;7.000;2024-02-16T03:57:34;4.70;;;1.10;;
37973;SDS011;23796;51.458;7.000;2024-02-16T03:59:59;3.20;;;1.30;;
37973;SDS011;23796;51.458;7.000;2024-02-16T04:02:25;3.00;;;1.02;;
37973;SDS011;23796;51.458;7.000;2024-02-16T04:04:53;3.92;;;1.25;;
37973;SDS011;23796;51.458;7.000;2024-02-16T04:07:18;2.88;;;1.10;;
37973;SDS011;23796;51.458;7.000;2024-02-16T04:09:44;3.17;;;1.23;;
37973;SDS011;23796;51.458;7.000;2024-02-16T04:12:10;2.25;;;0.80;;
37973;SDS011;23796;51.458;7.000;2024-02-16T04:14:35;2.15;;;0.93;;
37973;SDS011;23796;51.458;7.000;2024-02-16T04:17:03;3.63;;;1.00;;
37973;SDS011;23796;51.458;7.000;2024-02-16T04:19:29;4.53;;;1.15;;
37973;SDS011;23796;51.458;7.000;2024-02-16T04:21:55;5.35;;;1.52;;
37973;SDS011;23796;51.458;7.000;2024-02-16T04:24:23;4.55;;;1.27;;
37973;SDS011;23796;51.458;7.000;2024-02-16T04:26:51;3.22;;;1.02;;
37973;SDS011;23796;51.458;7.000;2024-02-16T04:29:17;5.18;;;1.50;;
37973;SDS011;23796;51.458;7.000;2024-02-16T04:31:44;5.70;;;1.48;;
37973;SDS011;23796;51.458;7.000;2024-02-16T04:34:11;3.35;;;0.95;;
37973;SDS011;23796;51.458;7.000;2024-02-16T04:36:37;2.90;;;1.20;;
37973;SDS011;23796;51.458;7.000;2024-02-16T04:39:03;4.53;;;1.17;;
37973;SDS011;23796;51.458;7.000;2024-02-16T04:41:28;4.07;;;1.30;;
37973;SDS011;23796;51.458;7.000;2024-02-16T04:43:54;3.28;;;1.25;;
37973;SDS011;23796;51.458;7.000;2024-02-16T04:46:20;3.72;;;1.38;;
37973;SDS011;23796;51.458;7.000;2024-02-16T04:48:46;5.10;;;1.13;;
37973;SDS011;23796;51.458;7.000;2024-02-16T04:51:12;3.65;;;1.17;;
37973;SDS011;23796;51.458;7.000;2024-02-16T04:53:38;3.20;;;1.30;;
37973;SDS011;23796;51.458;7.000;2024-02-16T04:56:03;2.90;;;1.20;;
37973;SDS011;23796;51.458;7.000;2024-02-16T04:58:32;7.32;;;1.80;;
37973;SDS011;23796;51.458;7.000;2024-02-16T05:00:57;5.00;;;1.42;;
37973;SDS011;23796;51.458;7.000;2024-02-16T05:03:23;4.72;;;1.58;;
37973;SDS011;23796;51.458;7.000;2024-02-16T05:05:50;4.75;;;1.50;;
37973;SDS011;23796;51.458;7.000;2024-02-16T05:08:16;4.38;;;1.92;;
37973;SDS011;23796;51.458;7.000;2024-02-16T05:10:42;2.80;;;1.00;;
37973;SDS011;23796;51.458;7.000;2024-02-16T05:13:08;2.53;;;0.90;;
37973;SDS011;23796;51.458;7.000;2024-02-16T05:15:33;3.10;;;0.88;;
37973;SDS011;23796;51.458;7.000;2024-02-16T05:17:59;3.30;;;1.15;;
37973;SDS011;23796;51.458;7.000;2024-02-16T05:20:25;3.15;;;1.10;;
37973;SDS011;23796;51.458;7.000;2024-02-16T05:22:50;3.05;;;1.17;;
37973;SDS011;23796;51.458;7.000;2024-02-16T05:25:18;6.05;;;1.35;;
37973;SDS011;23796;51.458;7.000;2024-02-16T05:27:47;3.55;;;1.30;;
37973;SDS011;23796;51.458;7.000;2024-02-16T05:30:15;2.80;;;1.05;;
37973;SDS011;23796;51.458;7.000;2024-02-16T05:32:44;2.85;;;1.30;;
37973;SDS011;23796;51.458;7.000;2024-02-16T05:35:10;3.72;;;1.30;;
37973;SDS011;23796;51.458;7.000;2024-02-16T05:37:47;3.53;;;1.20;;
37973;SDS011;23796;51.458;7.000;2024-02-16T05:40:22;3.00;;;1.30;;
37973;SDS011;23796;51.458;7.000;2024-02-16T05:42:55;3.50;;;1.75;;
37973;SDS011;23796;51.458;7.000;2024-02-16T05:45:23;4.88;;;1.90;;
37973;SDS011;23796;51.458;7.000;2024-02-16T05:47:51;3.75;;;1.08;;
37973;SDS011;23796;51.458;7.000;2024-02-16T05:50:17;4.97;;;1.17;;
37973;SDS011;23796;51.458;7.000;2024-02-16T05:52:45;4.57;;;1.23;;
37973;SDS011;23796;51.458;7.000;2024-02-16T05:55:14;4.15;;;1.58;;
37973;SDS011;23796;51.458;7.000;2024-02-16T05:57:40;3.30;;;1.20;;
37973;SDS011;23796;51.458;7.000;2024-02-16T06:00:11;3.20;;;1.27;;
37973;SDS011;23796;51.458;7.000;2024-02-16T06:02:38;3.88;;;1.38;;
37973;SDS011;23796;51.458;7.000;2024-02-16T06:05:04;3.85;;;1.50;;
37973;SDS011;23796;51.458;7.000;2024-02-16T06:07:32;3.38;;;1.25;;
37973;SDS011;23796;51.458;7.000;2024-02-16T06:10:00;4.22;;;1.30;;
37973;SDS011;23796;51.458;7.000;2024-02-16T06:12:29;4.85;;;1.80;;
37973;SDS011;23796;51.458;7.000;2024-02-16T06:14:54;4.47;;;1.38;;
37973;SDS011;23796;51.458;7.000;2024-02-16T06:17:21;3.78;;;1.50;;
37973;SDS011;23796;51.458;7.000;2024-02-16T06:19:47;4.18;;;1.48;;
37973;SDS011;23796;51.458;7.000;2024-02-16T06:22:13;3.47;;;1.10;;
37973;SDS011;23796;51.458;7.000;2024-02-16T06:24:39;5.40;;;1.40;;
37973;SDS011;23796;51.458;7.000;2024-02-16T06:27:05;4.28;;;1.65;;
37973;SDS011;23796;51.458;7.000;2024-02-16T06:29:33;3.45;;;1.50;;
37973;SDS011;23796;51.458;7.000;2024-02-16T06:31:59;5.72;;;1.50;;
37973;SDS011;23796;51.458;7.000;2024-02-16T06:34:27;3.67;;;1.40;;
37973;SDS011;23796;51.458;7.000;2024-02-16T06:36:53;3.80;;;1.50;;
37973;SDS011;23796;51.458;7.000;2024-02-16T06:39:18;3.53;;;1.27;;
37973;SDS011;23796;51.458;7.000;2024-02-16T06:41:48;4.68;;;1.30;;
37973;SDS011;23796;51.458;7.000;2024-02-16T06:44:16;3.65;;;1.40;;
37973;SDS011;23796;51.458;7.000;2024-02-16T06:46:42;3.97;;;1.45;;
37973;SDS011;23796;51.458;7.000;2024-02-16T06:49:08;3.67;;;1.40;;
37973;SDS011;23796;51.458;7.000;2024-02-16T06:51:36;5.35;;;1.83;;
37973;SDS011;23796;51.458;7.000;2024-02-16T06:54:02;3.85;;;1.30;;
37973;SDS011;23796;51.458;7.000;2024-02-16T06:56:29;4.95;;;1.70;;
37973;SDS011;23796;51.458;7.000;2024-02-16T06:58:55;4.00;;;1.35;;
37973;SDS011;23796;51.458;7.000;2024-02-16T07:01:26;6.40;;;1.70;;
37973;SDS011;23796;51.458;7.000;2024-02-16T07:03:52;4.53;;;1.52;;
37973;SDS011;23796;51.458;7.000;2024-02-16T07:06:18;5.07;;;1.40;;
37973;SDS011;23796;51.458;7.000;2024-02-16T07:08:44;3.92;;;1.45;;
37973;SDS011;23796;51.458;7.000;2024-02-16T07:11:12;2.55;;;1.10;;
37973;SDS011;23796;51.458;7.000;2024-02-16T07:13:40;4.32;;;1.42;;
37973;SDS011;23796;51.458;7.000;2024-02-16T07:16:08;4.20;;;1.60;;
37973;SDS011;23796;51.458;7.000;2024-02-16T07:18:34;6.80;;;1.60;;
37973;SDS011;23796;51.458;7.000;2024-02-16T07:21:00;4.78;;;1.60;;
37973;SDS011;23796;51.458;7.000;2024-02-16T07:23:26;4.03;;;1.20;;
37973;SDS011;23796;51.458;7.000;2024-02-16T07:25:52;6.10;;;1.63;;
37973;SDS011;23796;51.458;7.000;2024-02-16T07:28:21;4.03;;;1.50;;
37973;SDS011;23796;51.458;7.000;2024-02-16T07:30:51;3.40;;;1.40;;
37973;SDS011;23796;51.458;7.000;2024-02-16T07:33:16;5.25;;;1.73;;
37973;SDS011;23796;51.458;7.000;2024-02-16T07:35:42;3.78;;;1.33;;
37973;SDS011;23796;51.458;7.000;2024-02-16T07:38:09;7.30;;;1.67;;
37973;SDS011;23796;51.458;7.000;2024-02-16T07:40:34;3.88;;;1.63;;
37973;SDS011;23796;51.458;7.000;2024-02-16T07:43:00;6.45;;;1.38;;
37973;SDS011;23796;51.458;7.000;2024-02-16T07:45:26;3.40;;;1.50;;
37973;SDS011;23796;51.458;7.000;2024-02-16T07:47:54;6.03;;;1.70;;
37973;SDS011;23796;51.458;7.000;2024-02-16T07:50:21;5.30;;;1.80;;
37973;SDS011;23796;51.458;7.000;2024-02-16T07:52:48;4.90;;;1.60;;
37973;SDS011;23796;51.458;7.000;2024-02-16T07:55:14;3.42;;;1.60;;
37973;SDS011;23796;51.458;7.000;2024-02-16T07:57:42;6.28;;;2.00;;
37973;SDS011;23796;51.458;7.000;2024-02-16T08:00:08;3.42;;;1.52;;
37973;SDS011;23796;51.458;7.000;2024-02-16T08:02:36;2.92;;;1.45;;
37973;SDS011;23796;51.458;7.000;2024-02-16T08:05:02;3.58;;;1.42;;
37973;SDS011;23796;51.458;7.000;2024-02-16T08:07:27;5.22;;;1.42;;
37973;SDS011;23796;51.458;7.000;2024-02-16T08:09:53;2.50;;;1.10;;
37973;SDS011;23796;51.458;7.000;2024-02-16T08:12:19;4.50;;;1.40;;
37973;SDS011;23796;51.458;7.000;2024-02-16T08:14:44;4.25;;;1.50;;
37973;SDS011;23796;51.458;7.000;2024-02-16T08:17:11;4.22;;;1.80;;
37973;SDS011;23796;51.458;7.000;2024-02-16T08:19:37;4.10;;;1.45;;
37973;SDS011;23796;51.458;7.000;2024-02-16T08:22:03;8.90;;;1.77;;
37973;SDS011;23796;51.458;7.000;2024-02-16T08:24:36;4.75;;;1.50;;
37973;SDS011;23796;51.458;7.000;2024-02-16T08:27:02;5.50;;;1.85;;
37973;SDS011;23796;51.458;7.000;2024-02-16T08:29:29;6.25;;;1.88;;
37973;SDS011;23796;51.458;7.000;2024-02-16T08:31:55;4.90;;;1.42;;
37973;SDS011;23796;51.458;7.000;2024-02-16T08:34:23;5.05;;;1.65;;
37973;SDS011;23796;51.458;7.000;2024-02-16T08:36:51;5.53;;;1.75;;
37973;SDS011;23796;51.458;7.000;2024-02-16T08:39:16;4.68;;;1.60;;
37973;SDS011;23796;51.458;7.000;2024-02-16T08:41:43;5.30;;;1.63;;
37973;SDS011;23796;51.458;7.000;2024-02-16T08:44:09;4.68;;;1.50;;
37973;SDS011;23796;51.458;7.000;2024-02-16T08:46:37;5.90;;;1.67;;
37973;SDS011;23796;51.458;7.000;2024-02-16T08:49:04;5.38;;;1.88;;
37973;SDS011;23796;51.458;7.000;2024-02-16T08:51:31;3.78;;;1.83;;
37973;SDS011;23796;51.458;7.000;2024-02-16T08:53:57;5.72;;;2.13;;
37973;SDS011;23796;51.458;7.000;2024-02-16T08:56:23;4.00;;;1.50;;
37973;SDS011;23796;51.458;7.000;2024-02-16T08:58:48;2.92;;;1.27;;
37973;SDS011;23796;51.458;7.000;2024-02-16T09:01:14;4.97;;;1.70;;
37973;SDS011;23796;51.458;7.000;2024-02-16T09:03:41;3.40;;;1.50;;
37973;SDS011;23796;51.458;7.000;2024-02-16T09:06:07;6.00;;;1.50;;
37973;SDS011;23796;51.458;7.000;2024-02-16T09:08:33;5.40;;;1.33;;
37973;SDS011;23796;51.458;7.000;2024-02-16T09:11:03;4.10;;;1.50;;
37973;SDS011;23796;51.458;7.000;2024-02-16T09:13:32;4.40;;;1.40;;
37973;SDS011;23796;51.458;7.000;2024-02-16T09:15:59;3.05;;;1.42;;
37973;SDS011;23796;51.458;7.000;2024-02-16T09:18:25;6.20;;;1.42;;
37973;SDS011;23796;51.458;7.000;2024-02-16T09:20:51;7.28;;;1.85;;
37973;SDS011;23796;51.458;7.000;2024-02-16T09:23:16;5.65;;;2.08;;
37973;SDS011;23796;51.458;7.000;2024-02-16T09:25:42;4.47;;;1.48;;
37973;SDS011;23796;51.458;7.000;2024-02-16T09:28:08;5.00;;;2.15;;
37973;SDS011;23796;51.458;7.000;2024-02-16T09:30:34;5.45;;;1.65;;
37973;SDS011;23796;51.458;7.000;2024-02-16T09:33:01;6.30;;;2.67;;
37973;SDS011;23796;51.458;7.000;2024-02-16T09:35:27;3.97;;;1.52;;
37973;SDS011;23796;51.458;7.000;2024-02-16T09:37:53;6.13;;;1.60;;
37973;SDS011;23796;51.458;7.000;2024-02-16T09:40:18;6.75;;;1.80;;
37973;SDS011;23796;51.458;7.000;2024-02-16T09:42:47;3.58;;;1.42;;
37973;SDS011;23796;51.458;7.000;2024-02-16T09:45:16;4.53;;;1.52;;
37973;SDS011;23796;51.458;7.000;2024-02-16T09:47:45;3.88;;;1.80;;
37973;SDS011;23796;51.458;7.000;2024-02-16T09:50:14;6.38;;;2.72;;
37973;SDS011;23796;51.458;7.000;2024-02-16T09:52:40;4.82;;;1.70;;
37973;SDS011;23796;51.458;7.000;2024-02-16T09:55:12;3.20;;;1.20;;
37973;SDS011;23796;51.458;7.000;2024-02-16T09:57:38;5.55;;;1.45;;
37973;SDS011;23796;51.458;7.000;2024-02-16T10:00:04;5.80;;;1.98;;
37973;SDS011;23796;51.458;7.000;2024-02-16T10:02:43;5.78;;;1.92;;
37973;SDS011;23796;51.458;7.000;2024-02-16T10:07:40;6.50;;;1.83;;
37973;SDS011;23796;51.458;7.000;2024-02-16T10:10:25;5.43;;;1.90;;
37973;SDS011;23796;51.458;7.000;2024-02-16T10:13:01;6.25;;;1.70;;
37973;SDS011;23796;51.458;7.000;2024-02-16T10:15:30;4.88;;;1.63;;
37973;SDS011;23796;51.458;7.000;2024-02-16T10:18:00;6.25;;;1.63;;
37973;SDS011;23796;51.458;7.000;2024-02-16T10:20:32;5.13;;;1.90;;
37973;SDS011;23796;51.458;7.000;2024-02-16T10:23:07;5.63;;;2.00;;
37973;SDS011;23796;51.458;7.000;2024-02-16T10:25:37;6.35;;;2.33;;
37973;SDS011;23796;51.458;7.000;2024-02-16T10:28:09;5.85;;;1.70;;
37973;SDS011;23796;51.458;7.000;2024-02-16T10:33:05;5.35;;;1.98;;
37973;SDS011;23796;51.458;7.000;2024-02-16T10:35:34;5.25;;;2.00;;
37973;SDS011;23796;51.458;7.000;2024-02-16T10:38:03;7.22;;;2.20;;
37973;SDS011;23796;51.458;7.000;2024-02-16T10:40:40;5.47;;;2.15;;
37973;SDS011;23796;51.458;7.000;2024-02-16T10:43:07;7.57;;;1.87;;
37973;SDS011;23796;51.458;7.000;2024-02-16T10:45:36;5.22;;;2.20;;
37973;SDS011;23796;51.458;7.000;2024-02-16T10:50:36;6.55;;;2.17;;
37973;SDS011;23796;51.458;7.000;2024-02-16T10:55:52;5.80;;;1.98;;
37973;SDS011;23796;51.458;7.000;2024-02-16T10:58:20;6.60;;;2.10;;
37973;SDS011;23796;51.458;7.000;2024-02-16T11:00:50;5.60;;;2.50;;
37973;SDS011;23796;51.458;7.000;2024-02-16T11:03:17;8.27;;;2.30;;
37973;SDS011;23796;51.458;7.000;2024-02-16T11:05:48;7.20;;;1.90;;
37973;SDS011;23796;51.458;7.000;2024-02-16T11:08:15;5.60;;;1.77;;
37973;SDS011;23796;51.458;7.000;2024-02-16T11:11:02;5.82;;;1.75;;
37973;SDS011;23796;51.458;7.000;2024-02-16T11:13:31;6.75;;;1.90;;
37973;SDS011;23796;51.458;7.000;2024-02-16T11:15:59;4.05;;;1.80;;
37973;SDS011;23796;51.458;7.000;2024-02-16T11:18:30;4.80;;;2.22;;
37973;SDS011;23796;51.458;7.000;2024-02-16T11:20:59;6.90;;;2.17;;
37973;SDS011;23796;51.458;7.000;2024-02-16T11:23:32;4.95;;;2.13;;
37973;SDS011;23796;51.458;7.000;2024-02-16T11:26:05;8.35;;;2.28;;
37973;SDS011;23796;51.458;7.000;2024-02-16T11:28:37;5.10;;;2.20;;
37973;SDS011;23796;51.458;7.000;2024-02-16T11:31:03;5.03;;;2.10;;
37973;SDS011;23796;51.458;7.000;2024-02-16T11:33:30;4.88;;;2.00;;
37973;SDS011;23796;51.458;7.000;2024-02-16T11:35:59;6.05;;;2.05;;
37973;SDS011;23796;51.458;7.000;2024-02-16T11:38:36;6.13;;;2.55;;
37973;SDS011;23796;51.458;7.000;2024-02-16T11:41:05;4.25;;;2.17;;
37973;SDS011;23796;51.458;7.000;2024-02-16T11:43:35;8.23;;;3.03;;
37973;SDS011;23796;51.458;7.000;2024-02-16T11:46:13;4.72;;;2.03;;
37973;SDS011;23796;51.458;7.000;2024-02-16T11:48:42;6.43;;;2.37;;
37973;SDS011;23796;51.458;7.000;2024-02-16T11:51:08;6.95;;;2.15;;
37973;SDS011;23796;51.458;7.000;2024-02-16T11:53:34;7.38;;;2.80;;
37973;SDS011;23796;51.458;7.000;2024-02-16T11:56:00;5.68;;;2.30;;
37973;SDS011;23796;51.458;7.000;2024-02-16T11:58:25;7.93;;;2.55;;
37973;SDS011;23796;51.458;7.000;2024-02-16T12:00:52;8.40;;;2.45;;
37973;SDS011;23796;51.458;7.000;2024-02-16T12:03:24;6.25;;;2.63;;
37973;SDS011;23796;51.458;7.000;2024-02-16T12:08:20;9.52;;;2.35;;
37973;SDS011;23796;51.458;7.000;2024-02-16T12:10:47;4.22;;;1.95;;
37973;SDS011;23796;51.458;7.000;2024-02-16T12:13:18;6.27;;;2.20;;
37973;SDS011;23796;51.458;7.000;2024-02-16T12:15:45;9.10;;;2.75;;
37973;SDS011;23796;51.458;7.000;2024-02-16T12:18:22;4.88;;;2.20;;
37973;SDS011;23796;51.458;7.000;2024-02-16T12:21:05;6.03;;;2.28;;
37973;SDS011;23796;51.458;7.000;2024-02-16T12:23:32;8.55;;;2.40;;
37973;SDS011;23796;51.458;7.000;2024-02-16T12:26:01;7.22;;;2.08;;
37973;SDS011;23796;51.458;7.000;2024-02-16T12:28:28;5.35;;;2.20;;
37973;SDS011;23796;51.458;7.000;2024-02-16T12:30:55;8.82;;;2.50;;
37973;SDS011;23796;51.458;7.000;2024-02-16T12:33:21;6.00;;;2.60;;
37973;SDS011;23796;51.458;7.000;2024-02-16T12:35:47;5.57;;;2.08;;
37973;SDS011;23796;51.458;7.000;2024-02-16T12:38:13;6.18;;;2.80;;
37973;SDS011;23796;51.458;7.000;2024-02-16T12:40:42;7.28;;;2.65;;
37973;SDS011;23796;51.458;7.000;2024-02-16T12:43:08;9.70;;;3.17;;
37973;SDS011;23796;51.458;7.000;2024-02-16T12:45:36;6.55;;;2.92;;
37973;SDS011;23796;51.458;7.000;2024-02-16T12:48:02;5.95;;;3.00;;
37973;SDS011;23796;51.458;7.000;2024-02-16T12:50:29;7.07;;;3.15;;
37973;SDS011;23796;51.458;7.000;2024-02-16T12:52:55;7.55;;;3.20;;
37973;SDS011;23796;51.458;7.000;2024-02-16T12:55:22;7.18;;;2.70;;
37973;SDS011;23796;51.458;7.000;2024-02-16T12:57:48;7.60;;;2.88;;
37973;SDS011;23796;51.458;7.000;2024-02-16T13:00:14;7.28;;;3.15;;
37973;SDS011;23796;51.458;7.000;2024-02-16T13:02:40;6.30;;;2.85;;
37973;SDS011;23796;51.458;7.000;2024-02-16T13:05:06;6.95;;;2.83;;
37973;SDS011;23796;51.458;7.000;2024-02-16T13:07:33;9.90;;;4.60;;
37973;SDS011;23796;51.458;7.000;2024-02-16T13:09:59;8.27;;;3.50;;
37973;SDS011;23796;51.458;7.000;2024-02-16T13:12:28;7.25;;;3.92;;
37973;SDS011;23796;51.458;7.000;2024-02-16T13:14:53;8.88;;;3.28;;
37973;SDS011;23796;51.458;7.000;2024-02-16T13:17:19;10.00;;;3.38;;
37973;SDS011;23796;51.458;7.000;2024-02-16T13:19:44;7.82;;;3.05;;
37973;SDS011;23796;51.458;7.000;2024-02-16T13:22:10;5.57;;;3.67;;
37973;SDS011;23796;51.458;7.000;2024-02-16T13:24:36;9.20;;;3.70;;
37973;SDS011;23796;51.458;7.000;2024-02-16T13:27:04;6.40;;;3.60;;
37973;SDS011;23796;51.458;7.000;2024-02-16T13:29:31;7.88;;;3.90;;
37973;SDS011;23796;51.458;7.000;2024-02-16T13:31:57;5.95;;;3.10;;
37973;SDS011;23796;51.458;7.000;2024-02-16T13:34:23;7.03;;;3.70;;
37973;SDS011;23796;51.458;7.000;2024-02-16T13:36:50;6.68;;;3.63;;
37973;SDS011;23796;51.458;7.000;2024-02-16T13:39:17;8.23;;;3.20;;
37973;SDS011;23796;51.458;7.000;2024-02-16T13:41:44;8.57;;;3.58;;
37973;SDS011;23796;51.458;7.000;2024-02-16T13:44:13;5.80;;;3.20;;
37973;SDS011;23796;51.458;7.000;2024-02-16T13:46:39;9.15;;;3.92;;
37973;SDS011;23796;51.458;7.000;2024-02-16T13:49:04;7.80;;;4.10;;
37973;SDS011;23796;51.458;7.000;2024-02-16T13:51:30;5.93;;;3.70;;
37973;SDS011;23796;51.458;7.000;2024-02-16T13:53:55;8.52;;;4.72;;
37973;SDS011;23796;51.458;7.000;2024-02-16T13:56:21;9.50;;;5.57;;
37973;SDS011;23796;51.458;7.000;2024-02-16T13:58:47;7.38;;;5.35;;
37973;SDS011;23796;51.458;7.000;2024-02-16T14:01:12;9.95;;;5.50;;
37973;SDS011;23796;51.458;7.000;2024-02-16T14:03:39;11.20;;;5.22;;
37973;SDS011;23796;51.458;7.000;2024-02-16T14:06:05;7.60;;;5.28;;
37973;SDS011;23796;51.458;7.000;2024-02-16T14:08:35;8.85;;;5.95;;
37973;SDS011;23796;51.458;7.000;2024-02-16T14:11:01;9.50;;;5.97;;
37973;SDS011;23796;51.458;7.000;2024-02-16T14:13:27;9.18;;;6.05;;
37973;SDS011;23796;51.458;7.000;2024-02-16T14:15:53;12.43;;;6.13;;
37973;SDS011;23796;51.458;7.000;2024-02-16T14:18:19;10.75;;;5.78;;
37973;SDS011;23796;51.458;7.000;2024-02-16T14:20:45;11.23;;;5.72;;
37973;SDS011;23796;51.458;7.000;2024-02-16T14:23:11;8.55;;;5.90;;
37973;SDS011;23796;51.458;7.000;2024-02-16T14:25:39;9.93;;;7.18;;
37973;SDS011;23796;51.458;7.000;2024-02-16T14:28:05;9.77;;;5.90;;
37973;SDS011;23796;51.458;7.000;2024-02-16T14:30:32;12.77;;;6.97;;
37973;SDS011;23796;51.458;7.000;2024-02-16T14:33:01;10.05;;;6.78;;
37973;SDS011;23796;51.458;7.000;2024-02-16T14:35:29;12.60;;;7.38;;
37973;SDS011;23796;51.458;7.000;2024-02-16T14:38:01;11.68;;;7.10;;
37973;SDS011;23796;51.458;7.000;2024-02-16T14:40:27;10.90;;;7.45;;
37973;SDS011;23796;51.458;7.000;2024-02-16T14:42:52;10.88;;;7.18;;
37973;SDS011;23796;51.458;7.000;2024-02-16T14:45:18;9.07;;;7.50;;
37973;SDS011;23796;51.458;7.000;2024-02-16T14:47:45;8.77;;;6.15;;
37973;SDS011;23796;51.458;7.000;2024-02-16T14:50:12;7.55;;;5.88;;
37973;SDS011;23796;51.458;7.000;2024-02-16T14:52:41;8.40;;;6.57;;
37973;SDS011;23796;51.458;7.000;2024-02-16T14:55:07;9.07;;;6.05;;
37973;SDS011;23796;51.458;7.000;2024-02-16T14:57:35;8.27;;;6.35;;
37973;SDS011;23796;51.458;7.000;2024-02-16T15:00:05;9.35;;;6.32;;